sensor_id;sensor_type;location;lat;lon;timestamp;P1;durP1;ratioP1;P2;durP2;ratioP2
7719;SDS011;3902;49.474;8.616;2024-03-23T00:53:27;5.90;;;5.30;;
7719;SDS011;3902;49.474;8.616;2024-03-23T00:55:53;7.17;;;5.00;;
7719;SDS011;3902;49.474;8.616;2024-03-23T00:58:19;6.13;;;5.53;;
7719;SDS011;3902;49.474;8.616;2024-03-23T01:00:44;5.80;;;5.20;;
7719;SDS011;3902;49.474;8.616;2024-03-23T01:03:10;5.70;;;5.20;;
7719;SDS011;3902;49.474;8.616;2024-03-23T01:05:36;7.03;;;5.67;;
7719;SDS011;3902;49.474;8.616;2024-03-23T01:08:01;5.73;;;5.20;;
7719;SDS011;3902;49.474;8.616;2024-03-23T01:10:27;6.17;;;5.67;;
7719;SDS011;3902;49.474;8.616;2024-03-23T01:12:52;6.07;;;5.23;;
7719;SDS011;3902;49.474;8.616;2024-03-23T01:15:18;8.00;;;5.03;;
7719;SDS011;3902;49.474;8.616;2024-03-23T01:17:43;5.63;;;4.90;;
7719;SDS011;3902;49.474;8.616;2024-03-23T01:20:09;5.70;;;5.10;;
7719;SDS011;3902;49.474;8.616;2024-03-23T01:22:35;5.10;;;4.70;;
7719;SDS011;3902;49.474;8.616;2024-03-23T01:25:00;6.30;;;5.47;;
7719;SDS011;3902;49.474;8.616;2024-03-23T01:27:26;5.77;;;5.27;;
7719;SDS011;3902;49.474;8.616;2024-03-23T01:29:51;6.03;;;5.30;;
7719;SDS011;3902;49.474;8.616;2024-03-23T01:32:17;6.63;;;5.07;;
7719;SDS011;3902;49.474;8.616;2024-03-23T01:34:43;5.57;;;5.00;;
7719;SDS011;3902;49.474;8.616;2024-03-23T01:37:09;5.77;;;5.23;;
7719;SDS011;3902;49.474;8.616;2024-03-23T01:39:34;7.70;;;5.30;;
7719;SDS011;3902;49.474;8.616;2024-03-23T01:42:00;5.50;;;5.00;;
7719;SDS011;3902;49.474;8.616;2024-03-23T01:44:26;5.33;;;4.80;;
7719;SDS011;3902;49.474;8.616;2024-03-23T01:46:52;5.50;;;4.97;;
7719;SDS011;3902;49.474;8.616;2024-03-23T01:49:17;6.17;;;5.47;;
7719;SDS011;3902;49.474;8.616;2024-03-23T01:51:43;5.00;;;4.50;;
7719;SDS011;3902;49.474;8.616;2024-03-23T01:54:10;5.53;;;5.03;;
7719;SDS011;3902;49.474;8.616;2024-03-23T01:56:35;6.53;;;5.30;;
7719;SDS011;3902;49.474;8.616;2024-03-23T01:59:02;6.57;;;5.70;;
7719;SDS011;3902;49.474;8.616;2024-03-23T02:01:31;5.73;;;5.23;;
7719;SDS011;3902;49.474;8.616;2024-03-23T02:03:57;5.77;;;5.20;;
7719;SDS011;3902;49.474;8.616;2024-03-23T02:06:24;5.57;;;4.93;;
7719;SDS011;3902;49.474;8.616;2024-03-23T02:08:50;6.23;;;5.67;;
7719;SDS011;3902;49.474;8.616;2024-03-23T02:11:16;5.87;;;5.27;;
7719;SDS011;3902;49.474;8.616;2024-03-23T02:13:41;5.23;;;4.73;;
7719;SDS011;3902;49.474;8.616;2024-03-23T02:16:07;6.40;;;5.47;;
7719;SDS011;3902;49.474;8.616;2024-03-23T02:18:33;6.30;;;5.40;;
7719;SDS011;3902;49.474;8.616;2024-03-23T02:20:58;7.70;;;6.27;;
7719;SDS011;3902;49.474;8.616;2024-03-23T02:23:24;5.87;;;5.30;;
7719;SDS011;3902;49.474;8.616;2024-03-23T02:25:50;5.60;;;5.07;;
7719;SDS011;3902;49.474;8.616;2024-03-23T02:28:16;6.73;;;5.40;;
7719;SDS011;3902;49.474;8.616;2024-03-23T02:30:42;5.40;;;4.83;;
7719;SDS011;3902;49.474;8.616;2024-03-23T02:33:07;8.60;;;5.43;;
7719;SDS011;3902;49.474;8.616;2024-03-23T02:35:33;6.43;;;5.23;;
7719;SDS011;3902;49.474;8.616;2024-03-23T02:37:59;6.17;;;5.37;;
7719;SDS011;3902;49.474;8.616;2024-03-23T02:40:25;5.90;;;5.30;;
7719;SDS011;3902;49.474;8.616;2024-03-23T02:42:51;5.73;;;5.13;;
7719;SDS011;3902;49.474;8.616;2024-03-23T02:45:17;8.10;;;5.73;;
7719;SDS011;3902;49.474;8.616;2024-03-23T02:47:42;7.10;;;5.87;;
7719;SDS011;3902;49.474;8.616;2024-03-23T02:50:08;6.90;;;6.17;;
7719;SDS011;3902;49.474;8.616;2024-03-23T02:52:34;5.67;;;5.07;;
7719;SDS011;3902;49.474;8.616;2024-03-23T02:55:00;5.80;;;4.90;;
7719;SDS011;3902;49.474;8.616;2024-03-23T02:57:27;5.67;;;5.17;;
7719;SDS011;3902;49.474;8.616;2024-03-23T02:59:52;6.67;;;5.70;;
7719;SDS011;3902;49.474;8.616;2024-03-23T03:02:18;5.73;;;5.23;;
7719;SDS011;3902;49.474;8.616;2024-03-23T03:04:44;6.60;;;5.83;;
7719;SDS011;3902;49.474;8.616;2024-03-23T03:07:09;7.93;;;5.93;;
7719;SDS011;3902;49.474;8.616;2024-03-23T03:09:35;7.30;;;5.57;;
7719;SDS011;3902;49.474;8.616;2024-03-23T03:12:03;6.57;;;5.87;;
7719;SDS011;3902;49.474;8.616;2024-03-23T03:14:29;7.53;;;5.73;;
7719;SDS011;3902;49.474;8.616;2024-03-23T03:16:54;6.67;;;6.07;;
7719;SDS011;3902;49.474;8.616;2024-03-23T03:19:20;6.23;;;5.63;;
7719;SDS011;3902;49.474;8.616;2024-03-23T03:21:46;6.50;;;5.90;;
7719;SDS011;3902;49.474;8.616;2024-03-23T03:24:12;9.73;;;5.60;;
7719;SDS011;3902;49.474;8.616;2024-03-23T03:26:38;7.10;;;5.70;;
7719;SDS011;3902;49.474;8.616;2024-03-23T03:29:03;6.87;;;6.20;;
7719;SDS011;3902;49.474;8.616;2024-03-23T03:31:29;7.90;;;7.10;;
7719;SDS011;3902;49.474;8.616;2024-03-23T03:33:55;7.47;;;5.90;;
7719;SDS011;3902;49.474;8.616;2024-03-23T03:36:20;9.47;;;6.33;;
7719;SDS011;3902;49.474;8.616;2024-03-23T03:38:46;7.93;;;7.13;;
7719;SDS011;3902;49.474;8.616;2024-03-23T03:41:11;9.37;;;7.20;;
7719;SDS011;3902;49.474;8.616;2024-03-23T03:43:37;7.50;;;6.60;;
7719;SDS011;3902;49.474;8.616;2024-03-23T03:46:03;8.27;;;7.07;;
7719;SDS011;3902;49.474;8.616;2024-03-23T03:48:29;7.20;;;6.50;;
7719;SDS011;3902;49.474;8.616;2024-03-23T03:50:54;7.30;;;6.50;;
7719;SDS011;3902;49.474;8.616;2024-03-23T03:53:20;6.93;;;6.33;;
7719;SDS011;3902;49.474;8.616;2024-03-23T03:55:46;8.83;;;7.80;;
7719;SDS011;3902;49.474;8.616;2024-03-23T03:58:11;8.43;;;6.90;;
7719;SDS011;3902;49.474;8.616;2024-03-23T04:00:37;6.87;;;6.17;;
7719;SDS011;3902;49.474;8.616;2024-03-23T04:03:03;8.00;;;7.00;;
7719;SDS011;3902;49.474;8.616;2024-03-23T04:05:28;8.47;;;7.67;;
7719;SDS011;3902;49.474;8.616;2024-03-23T04:07:54;8.47;;;7.60;;
7719;SDS011;3902;49.474;8.616;2024-03-23T04:10:19;10.60;;;8.40;;
7719;SDS011;3902;49.474;8.616;2024-03-23T04:12:45;10.67;;;9.57;;
7719;SDS011;3902;49.474;8.616;2024-03-23T04:15:12;9.80;;;8.80;;
7719;SDS011;3902;49.474;8.616;2024-03-23T04:17:37;9.63;;;8.30;;
7719;SDS011;3902;49.474;8.616;2024-03-23T04:20:03;9.40;;;8.47;;
7719;SDS011;3902;49.474;8.616;2024-03-23T04:22:33;10.60;;;8.27;;
7719;SDS011;3902;49.474;8.616;2024-03-23T04:24:59;10.30;;;8.80;;
7719;SDS011;3902;49.474;8.616;2024-03-23T04:27:28;8.90;;;8.00;;
7719;SDS011;3902;49.474;8.616;2024-03-23T04:29:54;8.37;;;7.53;;
7719;SDS011;3902;49.474;8.616;2024-03-23T04:32:19;11.67;;;9.10;;
7719;SDS011;3902;49.474;8.616;2024-03-23T04:34:45;9.50;;;8.37;;
7719;SDS011;3902;49.474;8.616;2024-03-23T04:37:10;10.43;;;9.33;;
7719;SDS011;3902;49.474;8.616;2024-03-23T04:39:36;12.40;;;9.30;;
7719;SDS011;3902;49.474;8.616;2024-03-23T04:42:02;10.87;;;8.80;;
7719;SDS011;3902;49.474;8.616;2024-03-23T04:44:28;13.37;;;9.60;;
7719;SDS011;3902;49.474;8.616;2024-03-23T04:46:54;10.87;;;9.00;;
7719;SDS011;3902;49.474;8.616;2024-03-23T04:49:20;12.10;;;9.13;;
7719;SDS011;3902;49.474;8.616;2024-03-23T04:51:45;10.87;;;8.37;;
7719;SDS011;3902;49.474;8.616;2024-03-23T04:54:11;8.47;;;7.40;;
7719;SDS011;3902;49.474;8.616;2024-03-23T04:56:37;10.17;;;8.27;;
7719;SDS011;3902;49.474;8.616;2024-03-23T04:59:03;9.37;;;7.83;;
7719;SDS011;3902;49.474;8.616;2024-03-23T05:01:30;10.47;;;7.30;;
7719;SDS011;3902;49.474;8.616;2024-03-23T05:03:56;9.80;;;8.70;;
7719;SDS011;3902;49.474;8.616;2024-03-23T05:06:22;12.10;;;8.37;;
7719;SDS011;3902;49.474;8.616;2024-03-23T05:08:48;9.30;;;7.80;;
7719;SDS011;3902;49.474;8.616;2024-03-23T05:11:14;7.97;;;7.20;;
7719;SDS011;3902;49.474;8.616;2024-03-23T05:13:40;8.30;;;7.23;;
7719;SDS011;3902;49.474;8.616;2024-03-23T05:16:06;9.23;;;7.00;;
7719;SDS011;3902;49.474;8.616;2024-03-23T05:18:32;7.13;;;6.20;;
7719;SDS011;3902;49.474;8.616;2024-03-23T05:20:57;4.93;;;4.43;;
7719;SDS011;3902;49.474;8.616;2024-03-23T05:23:24;8.17;;;5.73;;
7719;SDS011;3902;49.474;8.616;2024-03-23T05:25:50;6.93;;;4.37;;
7719;SDS011;3902;49.474;8.616;2024-03-23T05:28:16;4.70;;;4.13;;
7719;SDS011;3902;49.474;8.616;2024-03-23T05:30:42;4.50;;;3.70;;
7719;SDS011;3902;49.474;8.616;2024-03-23T05:33:08;7.17;;;3.77;;
7719;SDS011;3902;49.474;8.616;2024-03-23T05:35:33;8.13;;;3.13;;
7719;SDS011;3902;49.474;8.616;2024-03-23T05:37:59;3.37;;;2.90;;
7719;SDS011;3902;49.474;8.616;2024-03-23T05:40:27;3.60;;;2.87;;
7719;SDS011;3902;49.474;8.616;2024-03-23T05:42:53;3.70;;;2.70;;
7719;SDS011;3902;49.474;8.616;2024-03-23T05:45:20;2.97;;;2.77;;
7719;SDS011;3902;49.474;8.616;2024-03-23T05:47:47;3.33;;;3.03;;
7719;SDS011;3902;49.474;8.616;2024-03-23T05:50:13;3.00;;;2.70;;
7719;SDS011;3902;49.474;8.616;2024-03-23T05:52:39;3.67;;;3.37;;
7719;SDS011;3902;49.474;8.616;2024-03-23T05:55:05;2.83;;;2.63;;
7719;SDS011;3902;49.474;8.616;2024-03-23T05:57:31;2.90;;;2.63;;
7719;SDS011;3902;49.474;8.616;2024-03-23T05:59:56;3.03;;;2.73;;
7719;SDS011;3902;49.474;8.616;2024-03-23T06:02:22;3.77;;;2.63;;
7719;SDS011;3902;49.474;8.616;2024-03-23T06:04:48;2.60;;;2.40;;
7719;SDS011;3902;49.474;8.616;2024-03-23T06:07:14;2.40;;;2.20;;
7719;SDS011;3902;49.474;8.616;2024-03-23T06:09:42;2.20;;;2.00;;
7719;SDS011;3902;49.474;8.616;2024-03-23T06:12:08;2.50;;;1.93;;
7719;SDS011;3902;49.474;8.616;2024-03-23T06:14:34;1.67;;;1.57;;
7719;SDS011;3902;49.474;8.616;2024-03-23T06:17:00;2.93;;;1.83;;
7719;SDS011;3902;49.474;8.616;2024-03-23T06:19:25;1.63;;;1.53;;
7719;SDS011;3902;49.474;8.616;2024-03-23T06:21:52;1.80;;;1.70;;
7719;SDS011;3902;49.474;8.616;2024-03-23T06:24:19;2.10;;;1.80;;
7719;SDS011;3902;49.474;8.616;2024-03-23T06:26:48;1.70;;;1.60;;
7719;SDS011;3902;49.474;8.616;2024-03-23T06:29:13;2.03;;;1.83;;
7719;SDS011;3902;49.474;8.616;2024-03-23T06:31:38;2.30;;;2.03;;
7719;SDS011;3902;49.474;8.616;2024-03-23T06:34:05;4.93;;;1.93;;
7719;SDS011;3902;49.474;8.616;2024-03-23T06:36:30;2.00;;;1.60;;
7719;SDS011;3902;49.474;8.616;2024-03-23T06:38:56;2.40;;;1.67;;
7719;SDS011;3902;49.474;8.616;2024-03-23T06:41:22;2.30;;;1.77;;
7719;SDS011;3902;49.474;8.616;2024-03-23T06:43:48;1.73;;;1.53;;
7719;SDS011;3902;49.474;8.616;2024-03-23T06:46:13;1.83;;;1.50;;
7719;SDS011;3902;49.474;8.616;2024-03-23T06:48:39;2.13;;;1.50;;
7719;SDS011;3902;49.474;8.616;2024-03-23T06:51:04;3.00;;;1.50;;
7719;SDS011;3902;49.474;8.616;2024-03-23T06:53:31;1.63;;;1.50;;
7719;SDS011;3902;49.474;8.616;2024-03-23T06:55:57;2.50;;;1.60;;
7719;SDS011;3902;49.474;8.616;2024-03-23T06:58:23;2.50;;;1.70;;
7719;SDS011;3902;49.474;8.616;2024-03-23T07:00:49;1.60;;;1.20;;
7719;SDS011;3902;49.474;8.616;2024-03-23T07:03:16;3.07;;;1.40;;
7719;SDS011;3902;49.474;8.616;2024-03-23T07:05:42;1.47;;;1.10;;
7719;SDS011;3902;49.474;8.616;2024-03-23T07:08:07;1.60;;;1.10;;
7719;SDS011;3902;49.474;8.616;2024-03-23T07:10:33;1.60;;;1.10;;
7719;SDS011;3902;49.474;8.616;2024-03-23T07:12:59;2.53;;;1.20;;
7719;SDS011;3902;49.474;8.616;2024-03-23T07:15:24;1.50;;;1.20;;
7719;SDS011;3902;49.474;8.616;2024-03-23T07:17:50;2.53;;;1.30;;
7719;SDS011;3902;49.474;8.616;2024-03-23T07:20:15;1.97;;;1.20;;
7719;SDS011;3902;49.474;8.616;2024-03-23T07:22:41;2.20;;;1.23;;
7719;SDS011;3902;49.474;8.616;2024-03-23T07:25:06;1.70;;;1.47;;
7719;SDS011;3902;49.474;8.616;2024-03-23T07:27:32;1.10;;;1.00;;
7719;SDS011;3902;49.474;8.616;2024-03-23T07:29:58;1.10;;;0.90;;
7719;SDS011;3902;49.474;8.616;2024-03-23T07:32:25;1.63;;;1.10;;
7719;SDS011;3902;49.474;8.616;2024-03-23T07:34:51;2.03;;;1.20;;
7719;SDS011;3902;49.474;8.616;2024-03-23T07:37:17;2.83;;;1.40;;
7719;SDS011;3902;49.474;8.616;2024-03-23T07:39:42;2.80;;;1.50;;
7719;SDS011;3902;49.474;8.616;2024-03-23T07:42:08;3.33;;;1.33;;
7719;SDS011;3902;49.474;8.616;2024-03-23T07:44:33;1.53;;;1.13;;
7719;SDS011;3902;49.474;8.616;2024-03-23T07:47:00;2.80;;;1.20;;
7719;SDS011;3902;49.474;8.616;2024-03-23T07:49:26;1.50;;;1.20;;
7719;SDS011;3902;49.474;8.616;2024-03-23T07:51:51;3.30;;;1.43;;
7719;SDS011;3902;49.474;8.616;2024-03-23T07:54:17;1.73;;;1.20;;
7719;SDS011;3902;49.474;8.616;2024-03-23T07:56:42;2.43;;;1.40;;
7719;SDS011;3902;49.474;8.616;2024-03-23T07:59:08;1.83;;;1.30;;
7719;SDS011;3902;49.474;8.616;2024-03-23T08:01:33;3.00;;;1.60;;
7719;SDS011;3902;49.474;8.616;2024-03-23T08:03:59;2.00;;;1.50;;
7719;SDS011;3902;49.474;8.616;2024-03-23T08:06:24;2.60;;;1.40;;
7719;SDS011;3902;49.474;8.616;2024-03-23T08:08:51;2.93;;;1.63;;
7719;SDS011;3902;49.474;8.616;2024-03-23T08:11:24;2.33;;;1.53;;
7719;SDS011;3902;49.474;8.616;2024-03-23T08:13:53;3.00;;;1.40;;
7719;SDS011;3902;49.474;8.616;2024-03-23T08:16:19;3.33;;;1.80;;
7719;SDS011;3902;49.474;8.616;2024-03-23T08:18:44;2.37;;;1.80;;
7719;SDS011;3902;49.474;8.616;2024-03-23T08:21:10;3.30;;;1.50;;
7719;SDS011;3902;49.474;8.616;2024-03-23T08:23:36;2.60;;;1.47;;
7719;SDS011;3902;49.474;8.616;2024-03-23T08:26:09;3.37;;;1.73;;
7719;SDS011;3902;49.474;8.616;2024-03-23T08:28:36;4.63;;;2.07;;
7719;SDS011;3902;49.474;8.616;2024-03-23T08:31:09;2.80;;;1.93;;
7719;SDS011;3902;49.474;8.616;2024-03-23T08:33:35;4.43;;;1.93;;
7719;SDS011;3902;49.474;8.616;2024-03-23T08:36:03;4.33;;;2.13;;
7719;SDS011;3902;49.474;8.616;2024-03-23T08:38:34;4.60;;;2.23;;
7719;SDS011;3902;49.474;8.616;2024-03-23T08:43:33;3.87;;;2.20;;
7719;SDS011;3902;49.474;8.616;2024-03-23T08:46:12;4.50;;;2.23;;
7719;SDS011;3902;49.474;8.616;2024-03-23T08:48:40;3.90;;;2.10;;
7719;SDS011;3902;49.474;8.616;2024-03-23T08:51:08;4.30;;;2.47;;
7719;SDS011;3902;49.474;8.616;2024-03-23T08:53:35;4.00;;;2.47;;
7719;SDS011;3902;49.474;8.616;2024-03-23T08:56:02;4.10;;;2.50;;
7719;SDS011;3902;49.474;8.616;2024-03-23T08:58:29;6.00;;;3.10;;
7719;SDS011;3902;49.474;8.616;2024-03-23T09:00:56;7.00;;;2.90;;
7719;SDS011;3902;49.474;8.616;2024-03-23T09:03:28;4.73;;;2.53;;
7719;SDS011;3902;49.474;8.616;2024-03-23T09:05:53;8.17;;;3.30;;
7719;SDS011;3902;49.474;8.616;2024-03-23T09:08:20;5.97;;;3.27;;
7719;SDS011;3902;49.474;8.616;2024-03-23T09:10:46;7.13;;;3.60;;
7719;SDS011;3902;49.474;8.616;2024-03-23T09:13:14;7.03;;;3.50;;
7719;SDS011;3902;49.474;8.616;2024-03-23T09:16:12;5.60;;;3.07;;
7719;SDS011;3902;49.474;8.616;2024-03-23T09:18:32;5.70;;;3.00;;
7719;SDS011;3902;49.474;8.616;2024-03-23T09:20:58;6.30;;;3.53;;
7719;SDS011;3902;49.474;8.616;2024-03-23T09:23:24;5.03;;;2.67;;
7719;SDS011;3902;49.474;8.616;2024-03-23T09:25:49;4.63;;;2.60;;
7719;SDS011;3902;49.474;8.616;2024-03-23T09:28:15;3.10;;;2.23;;
7719;SDS011;3902;49.474;8.616;2024-03-23T09:30:40;3.13;;;2.40;;
7719;SDS011;3902;49.474;8.616;2024-03-23T09:33:09;6.40;;;2.77;;
7719;SDS011;3902;49.474;8.616;2024-03-23T09:35:42;5.07;;;2.70;;
7719;SDS011;3902;49.474;8.616;2024-03-23T09:38:09;5.20;;;2.87;;
7719;SDS011;3902;49.474;8.616;2024-03-23T09:40:39;4.23;;;2.63;;
7719;SDS011;3902;49.474;8.616;2024-03-23T09:43:06;4.70;;;2.63;;
7719;SDS011;3902;49.474;8.616;2024-03-23T09:45:34;6.07;;;3.17;;
7719;SDS011;3902;49.474;8.616;2024-03-23T09:48:03;5.50;;;2.83;;
7719;SDS011;3902;49.474;8.616;2024-03-23T09:50:29;6.13;;;3.30;;
7719;SDS011;3902;49.474;8.616;2024-03-23T09:52:55;4.03;;;2.77;;
7719;SDS011;3902;49.474;8.616;2024-03-23T09:55:20;4.43;;;2.50;;
7719;SDS011;3902;49.474;8.616;2024-03-23T09:57:46;8.17;;;3.70;;
7719;SDS011;3902;49.474;8.616;2024-03-23T10:00:11;9.33;;;4.07;;
7719;SDS011;3902;49.474;8.616;2024-03-23T10:02:37;11.60;;;4.10;;
7719;SDS011;3902;49.474;8.616;2024-03-23T10:05:03;8.63;;;3.30;;
7719;SDS011;3902;49.474;8.616;2024-03-23T10:07:29;9.73;;;3.03;;
7719;SDS011;3902;49.474;8.616;2024-03-23T10:09:54;6.70;;;3.20;;
7719;SDS011;3902;49.474;8.616;2024-03-23T10:12:20;6.50;;;3.13;;
7719;SDS011;3902;49.474;8.616;2024-03-23T10:14:47;6.03;;;3.13;;
7719;SDS011;3902;49.474;8.616;2024-03-23T10:19:43;6.00;;;2.83;;
7719;SDS011;3902;49.474;8.616;2024-03-23T10:22:10;5.03;;;3.07;;
7719;SDS011;3902;49.474;8.616;2024-03-23T10:24:38;6.90;;;3.20;;
7719;SDS011;3902;49.474;8.616;2024-03-23T10:27:03;7.10;;;2.90;;
7719;SDS011;3902;49.474;8.616;2024-03-23T10:29:29;4.37;;;2.63;;
7719;SDS011;3902;49.474;8.616;2024-03-23T10:31:55;5.70;;;3.30;;
7719;SDS011;3902;49.474;8.616;2024-03-23T10:34:33;4.90;;;2.57;;
7719;SDS011;3902;49.474;8.616;2024-03-23T10:36:59;7.87;;;3.10;;
7719;SDS011;3902;49.474;8.616;2024-03-23T10:39:27;6.30;;;3.17;;
7719;SDS011;3902;49.474;8.616;2024-03-23T10:41:53;6.47;;;3.20;;
7719;SDS011;3902;49.474;8.616;2024-03-23T10:44:22;6.60;;;2.90;;
7719;SDS011;3902;49.474;8.616;2024-03-23T10:46:51;6.83;;;3.07;;
7719;SDS011;3902;49.474;8.616;2024-03-23T10:49:23;7.60;;;3.17;;
7719;SDS011;3902;49.474;8.616;2024-03-23T10:51:50;4.73;;;2.70;;
7719;SDS011;3902;49.474;8.616;2024-03-23T10:54:16;7.77;;;3.30;;
7719;SDS011;3902;49.474;8.616;2024-03-23T10:56:43;6.83;;;2.67;;
7719;SDS011;3902;49.474;8.616;2024-03-23T10:59:09;10.17;;;3.27;;
7719;SDS011;3902;49.474;8.616;2024-03-23T11:01:35;6.33;;;2.80;;
7719;SDS011;3902;49.474;8.616;2024-03-23T11:04:38;4.93;;;2.30;;
7719;SDS011;3902;49.474;8.616;2024-03-23T11:07:27;4.20;;;2.23;;
7719;SDS011;3902;49.474;8.616;2024-03-23T11:09:49;5.90;;;2.60;;
7719;SDS011;3902;49.474;8.616;2024-03-23T11:14:51;5.83;;;2.67;;
7719;SDS011;3902;49.474;8.616;2024-03-23T11:17:19;6.03;;;2.60;;
7719;SDS011;3902;49.474;8.616;2024-03-23T11:19:52;6.97;;;3.40;;
7719;SDS011;3902;49.474;8.616;2024-03-23T11:25:12;6.40;;;2.80;;
7719;SDS011;3902;49.474;8.616;2024-03-23T11:27:49;7.77;;;2.53;;
7719;SDS011;3902;49.474;8.616;2024-03-23T11:30:17;4.67;;;2.10;;
7719;SDS011;3902;49.474;8.616;2024-03-23T11:33:03;3.67;;;2.47;;
7719;SDS011;3902;49.474;8.616;2024-03-23T11:35:33;3.90;;;2.13;;
7719;SDS011;3902;49.474;8.616;2024-03-23T11:38:09;4.47;;;2.20;;
7719;SDS011;3902;49.474;8.616;2024-03-23T11:40:37;6.07;;;2.30;;
7719;SDS011;3902;49.474;8.616;2024-03-23T11:43:08;5.33;;;2.37;;
7719;SDS011;3902;49.474;8.616;2024-03-23T11:45:37;5.60;;;1.90;;
7719;SDS011;3902;49.474;8.616;2024-03-23T11:48:05;4.10;;;2.00;;
7719;SDS011;3902;49.474;8.616;2024-03-23T11:50:41;4.03;;;2.10;;
7719;SDS011;3902;49.474;8.616;2024-03-23T11:58:17;10.37;;;2.10;;
7719;SDS011;3902;49.474;8.616;2024-03-23T12:00:50;3.50;;;1.50;;
7719;SDS011;3902;49.474;8.616;2024-03-23T12:03:17;2.13;;;1.63;;
7719;SDS011;3902;49.474;8.616;2024-03-23T12:05:47;3.20;;;1.73;;
7719;SDS011;3902;49.474;8.616;2024-03-23T12:08:14;2.70;;;2.00;;
7719;SDS011;3902;49.474;8.616;2024-03-23T12:11:09;6.57;;;2.10;;
7719;SDS011;3902;49.474;8.616;2024-03-23T12:13:40;3.13;;;2.00;;
7719;SDS011;3902;49.474;8.616;2024-03-23T12:16:16;3.73;;;1.70;;
7719;SDS011;3902;49.474;8.616;2024-03-23T12:18:45;4.73;;;2.60;;
7719;SDS011;3902;49.474;8.616;2024-03-23T12:21:16;3.97;;;2.50;;
7719;SDS011;3902;49.474;8.616;2024-03-23T12:23:42;3.83;;;1.93;;
7719;SDS011;3902;49.474;8.616;2024-03-23T12:26:09;2.43;;;2.10;;
7719;SDS011;3902;49.474;8.616;2024-03-23T12:28:36;4.73;;;2.30;;
7719;SDS011;3902;49.474;8.616;2024-03-23T12:31:02;3.40;;;2.00;;
7719;SDS011;3902;49.474;8.616;2024-03-23T12:33:28;2.87;;;2.10;;
7719;SDS011;3902;49.474;8.616;2024-03-23T12:35:53;3.53;;;1.73;;
7719;SDS011;3902;49.474;8.616;2024-03-23T12:38:19;2.70;;;1.73;;
7719;SDS011;3902;49.474;8.616;2024-03-23T12:40:48;2.60;;;1.63;;
7719;SDS011;3902;49.474;8.616;2024-03-23T12:43:14;3.03;;;1.80;;
7719;SDS011;3902;49.474;8.616;2024-03-23T12:45:40;3.10;;;2.07;;
7719;SDS011;3902;49.474;8.616;2024-03-23T12:48:06;4.90;;;2.17;;
7719;SDS011;3902;49.474;8.616;2024-03-23T12:50:32;3.60;;;2.50;;
7719;SDS011;3902;49.474;8.616;2024-03-23T12:52:57;3.60;;;2.17;;
7719;SDS011;3902;49.474;8.616;2024-03-23T12:55:23;3.33;;;1.93;;
7719;SDS011;3902;49.474;8.616;2024-03-23T12:57:48;4.63;;;2.23;;
7719;SDS011;3902;49.474;8.616;2024-03-23T13:00:14;4.80;;;2.20;;
7719;SDS011;3902;49.474;8.616;2024-03-23T13:02:41;4.40;;;2.40;;
7719;SDS011;3902;49.474;8.616;2024-03-23T13:05:07;2.73;;;2.10;;
7719;SDS011;3902;49.474;8.616;2024-03-23T13:07:34;3.33;;;2.20;;
7719;SDS011;3902;49.474;8.616;2024-03-23T13:10:00;4.93;;;2.27;;
7719;SDS011;3902;49.474;8.616;2024-03-23T13:12:25;1.60;;;1.20;;
7719;SDS011;3902;49.474;8.616;2024-03-23T13:14:51;3.33;;;1.73;;
7719;SDS011;3902;49.474;8.616;2024-03-23T13:17:17;2.80;;;1.90;;
7719;SDS011;3902;49.474;8.616;2024-03-23T13:19:42;4.87;;;1.63;;
7719;SDS011;3902;49.474;8.616;2024-03-23T13:22:08;5.10;;;1.43;;
7719;SDS011;3902;49.474;8.616;2024-03-23T13:24:36;2.07;;;1.60;;
7719;SDS011;3902;49.474;8.616;2024-03-23T13:27:02;1.53;;;1.30;;
7719;SDS011;3902;49.474;8.616;2024-03-23T13:29:27;1.87;;;1.13;;
7719;SDS011;3902;49.474;8.616;2024-03-23T13:31:53;2.13;;;1.40;;
7719;SDS011;3902;49.474;8.616;2024-03-23T13:34:19;1.57;;;1.27;;
7719;SDS011;3902;49.474;8.616;2024-03-23T13:36:45;2.00;;;1.30;;
7719;SDS011;3902;49.474;8.616;2024-03-23T13:39:11;2.80;;;1.40;;
7719;SDS011;3902;49.474;8.616;2024-03-23T13:41:40;2.30;;;1.30;;
7719;SDS011;3902;49.474;8.616;2024-03-23T13:44:07;2.17;;;1.57;;
7719;SDS011;3902;49.474;8.616;2024-03-23T13:46:35;1.80;;;1.30;;
7719;SDS011;3902;49.474;8.616;2024-03-23T13:49:01;3.57;;;1.70;;
7719;SDS011;3902;49.474;8.616;2024-03-23T13:51:27;1.43;;;1.30;;
7719;SDS011;3902;49.474;8.616;2024-03-23T13:53:53;2.07;;;1.50;;
7719;SDS011;3902;49.474;8.616;2024-03-23T13:56:19;3.10;;;1.20;;
7719;SDS011;3902;49.474;8.616;2024-03-23T13:58:45;3.00;;;1.47;;
7719;SDS011;3902;49.474;8.616;2024-03-23T14:01:12;2.60;;;1.43;;
7719;SDS011;3902;49.474;8.616;2024-03-23T14:03:38;2.77;;;1.30;;
7719;SDS011;3902;49.474;8.616;2024-03-23T14:06:04;4.43;;;1.27;;
7719;SDS011;3902;49.474;8.616;2024-03-23T14:08:31;1.67;;;1.23;;
7719;SDS011;3902;49.474;8.616;2024-03-23T14:10:58;1.70;;;1.20;;
7719;SDS011;3902;49.474;8.616;2024-03-23T14:13:23;1.83;;;1.20;;
7719;SDS011;3902;49.474;8.616;2024-03-23T14:15:58;1.77;;;1.33;;
7719;SDS011;3902;49.474;8.616;2024-03-23T14:18:24;3.60;;;1.73;;
7719;SDS011;3902;49.474;8.616;2024-03-23T14:20:51;5.80;;;1.57;;
7719;SDS011;3902;49.474;8.616;2024-03-23T14:23:16;2.70;;;1.53;;
7719;SDS011;3902;49.474;8.616;2024-03-23T14:25:42;3.77;;;1.30;;
7719;SDS011;3902;49.474;8.616;2024-03-23T14:28:08;2.43;;;1.37;;
7719;SDS011;3902;49.474;8.616;2024-03-23T14:30:39;1.80;;;1.10;;
7719;SDS011;3902;49.474;8.616;2024-03-23T14:33:05;4.30;;;1.60;;
7719;SDS011;3902;49.474;8.616;2024-03-23T14:35:32;3.13;;;1.90;;
7719;SDS011;3902;49.474;8.616;2024-03-23T14:37:58;3.67;;;2.00;;
7719;SDS011;3902;49.474;8.616;2024-03-23T14:40:23;3.90;;;1.93;;
7719;SDS011;3902;49.474;8.616;2024-03-23T14:42:52;3.20;;;1.97;;
7719;SDS011;3902;49.474;8.616;2024-03-23T14:45:18;3.43;;;1.80;;
7719;SDS011;3902;49.474;8.616;2024-03-23T14:47:44;3.67;;;1.73;;
7719;SDS011;3902;49.474;8.616;2024-03-23T14:50:10;2.93;;;1.30;;
7719;SDS011;3902;49.474;8.616;2024-03-23T14:52:39;5.10;;;1.37;;
7719;SDS011;3902;49.474;8.616;2024-03-23T14:55:04;1.90;;;1.30;;
7719;SDS011;3902;49.474;8.616;2024-03-23T14:57:30;2.27;;;1.43;;
7719;SDS011;3902;49.474;8.616;2024-03-23T14:59:56;1.67;;;1.30;;
7719;SDS011;3902;49.474;8.616;2024-03-23T15:02:21;1.20;;;0.93;;
7719;SDS011;3902;49.474;8.616;2024-03-23T15:04:47;1.20;;;1.10;;
7719;SDS011;3902;49.474;8.616;2024-03-23T15:07:12;3.30;;;1.90;;
7719;SDS011;3902;49.474;8.616;2024-03-23T15:09:38;2.53;;;1.47;;
7719;SDS011;3902;49.474;8.616;2024-03-23T15:12:04;2.20;;;1.20;;
7719;SDS011;3902;49.474;8.616;2024-03-23T15:14:29;2.10;;;1.50;;
7719;SDS011;3902;49.474;8.616;2024-03-23T15:16:55;2.13;;;1.50;;
7719;SDS011;3902;49.474;8.616;2024-03-23T15:19:20;2.50;;;2.00;;
7719;SDS011;3902;49.474;8.616;2024-03-23T15:21:46;3.57;;;1.90;;
7719;SDS011;3902;49.474;8.616;2024-03-23T15:24:11;4.63;;;2.53;;
7719;SDS011;3902;49.474;8.616;2024-03-23T15:26:37;3.10;;;2.67;;
7719;SDS011;3902;49.474;8.616;2024-03-23T15:29:03;4.13;;;2.30;;
7719;SDS011;3902;49.474;8.616;2024-03-23T15:31:36;3.67;;;3.00;;
7719;SDS011;3902;49.474;8.616;2024-03-23T15:34:02;2.60;;;1.87;;
7719;SDS011;3902;49.474;8.616;2024-03-23T15:36:28;3.00;;;1.60;;
7719;SDS011;3902;49.474;8.616;2024-03-23T15:38:54;3.13;;;1.70;;
7719;SDS011;3902;49.474;8.616;2024-03-23T15:41:20;2.07;;;1.37;;
7719;SDS011;3902;49.474;8.616;2024-03-23T15:43:48;3.57;;;1.63;;
7719;SDS011;3902;49.474;8.616;2024-03-23T15:46:13;3.00;;;1.60;;
7719;SDS011;3902;49.474;8.616;2024-03-23T15:48:40;2.40;;;1.70;;
7719;SDS011;3902;49.474;8.616;2024-03-23T15:51:08;3.37;;;1.40;;
7719;SDS011;3902;49.474;8.616;2024-03-23T15:53:33;4.77;;;1.77;;
7719;SDS011;3902;49.474;8.616;2024-03-23T15:56:00;1.90;;;1.40;;
7719;SDS011;3902;49.474;8.616;2024-03-23T15:58:27;2.10;;;1.43;;
7719;SDS011;3902;49.474;8.616;2024-03-23T16:03:22;3.83;;;2.40;;
7719;SDS011;3902;49.474;8.616;2024-03-23T16:05:56;3.03;;;1.60;;
7719;SDS011;3902;49.474;8.616;2024-03-23T16:08:22;2.53;;;1.60;;
7719;SDS011;3902;49.474;8.616;2024-03-23T16:10:48;2.13;;;1.23;;
7719;SDS011;3902;49.474;8.616;2024-03-23T16:13:15;2.70;;;1.67;;
7719;SDS011;3902;49.474;8.616;2024-03-23T16:15:41;2.10;;;1.80;;
7719;SDS011;3902;49.474;8.616;2024-03-23T16:18:07;4.33;;;2.40;;
7719;SDS011;3902;49.474;8.616;2024-03-23T16:20:33;1.43;;;1.30;;
7719;SDS011;3902;49.474;8.616;2024-03-23T16:23:01;2.70;;;1.20;;